Time;durP1;ratioP1;P1;durP2;ratioP2;P2;SDS_P1;SDS_P2;PMS_P1;PMS_P2;Temp;Humidity;BMP_temperature;BMP_pressure;BME280_temperature;BME280_humidity;BME280_pressure;Samples;Min_cycle;Max_cycle;Signal;HPM_P1;HPM_P2
2022/07/29 00:00:44;;;;;;;2.78;1.00;;;;;;;;;;5049341;28;20230;-16
2022/07/29 00:03:11;;;;;;;4.22;1.00;;;;;;;;;;5049700;28;20768;-16
2022/07/29 00:05:39;;;;;;;2.10;0.80;;;;;;;;;;5050165;28;20296;-16
2022/07/29 00:08:06;;;;;;;3.10;0.82;;;;;;;;;;5069486;28;20226;-16
2022/07/29 00:10:38;;;;;;;1.08;0.75;;;;;;;;;;5051168;28;20265;-17
2022/07/29 00:13:06;;;;;;;3.67;0.93;;;;;;;;;;5048710;28;20238;-16
2022/07/29 00:15:33;;;;;;;1.88;1.00;;;;;;;;;;5050908;28;20306;-14
2022/07/29 00:18:02;;;;;;;3.45;0.88;;;;;;;;;;5058825;28;20232;-16
2022/07/29 00:20:29;;;;;;;3.17;1.08;;;;;;;;;;5054025;28;20949;-16
2022/07/29 00:22:57;;;;;;;2.13;0.90;;;;;;;;;;5011652;28;1078138;-16
2022/07/29 00:25:24;;;;;;;3.80;1.08;;;;;;;;;;5065062;28;20229;-16
2022/07/29 00:27:52;;;;;;;2.65;1.10;;;;;;;;;;5064705;28;20238;-17
2022/07/29 00:30:19;;;;;;;2.97;1.00;;;;;;;;;;5054663;28;20327;-16
2022/07/29 00:32:47;;;;;;;1.50;0.90;;;;;;;;;;5064243;28;20229;-16
2022/07/29 00:38:00;;;;;;;2.35;1.05;;;;;;;;;;5054459;28;20325;-16
2022/07/29 00:40:28;;;;;;;2.15;0.88;;;;;;;;;;5051074;28;20850;-16
2022/07/29 00:42:55;;;;;;;1.50;0.70;;;;;;;;;;5050487;28;20238;-16
2022/07/29 00:45:23;;;;;;;2.50;0.80;;;;;;;;;;5062301;28;20234;-16
2022/07/29 00:47:51;;;;;;;1.52;0.80;;;;;;;;;;5057831;28;20246;-16
2022/07/29 00:50:19;;;;;;;2.45;0.95;;;;;;;;;;5050772;28;20230;-16
2022/07/29 00:52:47;;;;;;;1.00;0.70;;;;;;;;;;5050511;28;20236;-16
2022/07/29 00:55:15;;;;;;;2.28;1.00;;;;;;;;;;5049853;28;20773;-16
2022/07/29 00:57:43;;;;;;;3.30;1.00;;;;;;;;;;5060553;28;21030;-17
2022/07/29 01:00:11;;;;;;;2.35;0.90;;;;;;;;;;5053977;28;20248;-16
2022/07/29 01:02:39;;;;;;;1.30;0.65;;;;;;;;;;5050450;28;20317;-16
2022/07/29 01:05:07;;;;;;;1.60;0.85;;;;;;;;;;5054233;28;20345;-16
2022/07/29 01:07:36;;;;;;;4.43;0.93;;;;;;;;;;5053271;28;20218;-16
2022/07/29 01:10:04;;;;;;;3.75;1.00;;;;;;;;;;5057374;28;20248;-16
2022/07/29 01:12:32;;;;;;;1.60;0.80;;;;;;;;;;5045737;28;20329;-17
2022/07/29 01:15:00;;;;;;;2.42;0.90;;;;;;;;;;5053457;28;20727;-16
2022/07/29 01:17:27;;;;;;;1.02;0.90;;;;;;;;;;5050796;28;20236;-16
2022/07/29 01:19:57;;;;;;;1.35;0.73;;;;;;;;;;5046972;28;20974;-16
2022/07/29 01:22:42;;;;;;;2.10;1.02;;;;;;;;;;5050560;28;20739;-17
2022/07/29 01:25:18;;;;;;;3.63;1.08;;;;;;;;;;5020430;28;20252;-17
2022/07/29 01:27:48;;;;;;;1.05;0.70;;;;;;;;;;5051989;28;20264;-16
2022/07/29 01:30:17;;;;;;;2.60;1.00;;;;;;;;;;5052013;28;20245;-16
2022/07/29 01:32:49;;;;;;;3.05;0.80;;;;;;;;;;5053477;28;20318;-17
2022/07/29 01:35:16;;;;;;;1.80;0.98;;;;;;;;;;5053610;28;20676;-17
2022/07/29 01:37:44;;;;;;;1.98;1.00;;;;;;;;;;5053494;28;20240;-17
2022/07/29 01:40:12;;;;;;;3.83;0.80;;;;;;;;;;5067804;28;20249;-17
2022/07/29 01:42:41;;;;;;;1.95;1.00;;;;;;;;;;5051971;28;20275;-17
2022/07/29 01:45:10;;;;;;;1.92;0.90;;;;;;;;;;5053090;28;20230;-16
2022/07/29 01:47:39;;;;;;;1.83;0.70;;;;;;;;;;5052328;28;20233;-16
2022/07/29 01:50:08;;;;;;;1.02;0.65;;;;;;;;;;5053499;28;20234;-16
2022/07/29 01:52:37;;;;;;;2.22;0.90;;;;;;;;;;5052479;28;20236;-16
2022/07/29 01:55:05;;;;;;;1.75;0.80;;;;;;;;;;5052778;28;20233;-16
2022/07/29 01:57:32;;;;;;;2.92;0.93;;;;;;;;;;5053240;28;20316;-16
2022/07/29 02:00:00;;;;;;;4.10;1.00;;;;;;;;;;5053221;28;20876;-16
2022/07/29 02:02:27;;;;;;;1.73;0.70;;;;;;;;;;5066179;28;20226;-16
2022/07/29 02:04:56;;;;;;;1.33;0.80;;;;;;;;;;5053455;28;20780;-17
2022/07/29 02:07:24;;;;;;;3.40;0.90;;;;;;;;;;5052837;28;20230;-16
2022/07/29 02:09:51;;;;;;;2.05;1.02;;;;;;;;;;5053006;28;20237;-16
2022/07/29 02:12:19;;;;;;;2.15;1.00;;;;;;;;;;5052127;28;20226;-16
2022/07/29 02:14:47;;;;;;;1.65;0.77;;;;;;;;;;5051975;28;20226;-16
2022/07/29 02:17:15;;;;;;;2.25;1.00;;;;;;;;;;5054465;28;20292;-16
2022/07/29 02:19:42;;;;;;;2.55;1.00;;;;;;;;;;5052173;28;20325;-16
2022/07/29 02:22:11;;;;;;;1.25;1.02;;;;;;;;;;5056973;22;20776;-15
2022/07/29 02:24:39;;;;;;;2.17;0.88;;;;;;;;;;5039760;28;20237;-15
2022/07/29 02:27:07;;;;;;;4.22;0.93;;;;;;;;;;5040344;28;20229;-14
2022/07/29 02:29:34;;;;;;;1.88;0.90;;;;;;;;;;5052734;28;20238;-14
2022/07/29 02:32:02;;;;;;;2.95;0.98;;;;;;;;;;5038711;28;20241;-14
2022/07/29 02:34:29;;;;;;;1.15;0.75;;;;;;;;;;5052803;28;20241;-14
2022/07/29 02:36:56;;;;;;;1.55;0.70;;;;;;;;;;5044741;28;21111;-14
2022/07/29 02:39:25;;;;;;;1.17;0.77;;;;;;;;;;5032095;28;20710;-15
2022/07/29 02:41:53;;;;;;;2.88;1.13;;;;;;;;;;5032546;28;20238;-14
2022/07/29 02:44:21;;;;;;;2.47;1.00;;;;;;;;;;5032779;28;20242;-15
2022/07/29 02:46:50;;;;;;;1.88;0.85;;;;;;;;;;5032925;28;20241;-15
2022/07/29 02:49:19;;;;;;;3.53;1.25;;;;;;;;;;5031805;28;20234;-15
2022/07/29 02:51:47;;;;;;;1.13;1.00;;;;;;;;;;5032876;28;20235;-15
2022/07/29 02:54:21;;;;;;;2.33;1.10;;;;;;;;;;5032531;28;20227;-15
2022/07/29 02:56:52;;;;;;;2.78;1.02;;;;;;;;;;5018864;28;21064;-15
2022/07/29 02:59:20;;;;;;;2.22;1.00;;;;;;;;;;5031463;28;20235;-15
2022/07/29 03:01:48;;;;;;;3.40;1.10;;;;;;;;;;5031199;28;20270;-15
2022/07/29 03:04:15;;;;;;;1.80;0.93;;;;;;;;;;5032373;28;21081;-15
2022/07/29 03:06:43;;;;;;;1.77;1.10;;;;;;;;;;5032526;28;20235;-15
2022/07/29 03:09:11;;;;;;;1.38;0.80;;;;;;;;;;5031715;28;20235;-15
2022/07/29 03:11:40;;;;;;;1.17;0.95;;;;;;;;;;5032126;28;20646;-15
2022/07/29 03:14:18;;;;;;;1.10;0.65;;;;;;;;;;5031453;28;20923;-15
2022/07/29 03:16:47;;;;;;;1.17;0.73;;;;;;;;;;5032170;28;20695;-15
2022/07/29 03:19:14;;;;;;;1.52;0.93;;;;;;;;;;5032250;28;20998;-15
2022/07/29 03:21:42;;;;;;;2.40;0.90;;;;;;;;;;5030769;28;20798;-15
2022/07/29 03:24:09;;;;;;;1.33;0.82;;;;;;;;;;5032316;28;20725;-15
2022/07/29 03:26:37;;;;;;;1.85;0.90;;;;;;;;;;5031038;28;20724;-15
2022/07/29 03:29:04;;;;;;;1.60;0.77;;;;;;;;;;5032284;28;20317;-15
2022/07/29 03:31:34;;;;;;;2.40;1.02;;;;;;;;;;5030340;28;20323;-15
2022/07/29 03:34:02;;;;;;;1.75;1.00;;;;;;;;;;5031984;28;20233;-15
2022/07/29 03:36:29;;;;;;;2.35;0.90;;;;;;;;;;5031705;28;20238;-15
2022/07/29 03:38:57;;;;;;;1.90;0.98;;;;;;;;;;5031577;28;20325;-15
2022/07/29 03:41:24;;;;;;;1.00;0.80;;;;;;;;;;5031584;28;20234;-15
2022/07/29 03:43:51;;;;;;;2.78;0.95;;;;;;;;;;5030333;28;20343;-15
2022/07/29 03:46:19;;;;;;;1.00;0.63;;;;;;;;;;5031325;28;20694;-15
2022/07/29 03:48:49;;;;;;;1.60;0.93;;;;;;;;;;5031574;28;20233;-15
2022/07/29 03:51:17;;;;;;;1.35;0.75;;;;;;;;;;5031131;28;20234;-15
2022/07/29 03:53:44;;;;;;;1.45;0.90;;;;;;;;;;5030783;28;20333;-15
2022/07/29 03:56:11;;;;;;;1.95;1.00;;;;;;;;;;5031279;28;20245;-15
2022/07/29 03:58:39;;;;;;;1.88;0.90;;;;;;;;;;5031536;28;20227;-15
2022/07/29 04:01:06;;;;;;;1.45;0.90;;;;;;;;;;5031294;28;20233;-15
2022/07/29 04:03:34;;;;;;;2.03;1.00;;;;;;;;;;5031657;28;20238;-15
2022/07/29 04:06:05;;;;;;;1.17;0.90;;;;;;;;;;5030776;28;20235;-15
2022/07/29 04:08:32;;;;;;;2.20;1.00;;;;;;;;;;5031448;28;20231;-15
2022/07/29 04:11:00;;;;;;;1.70;1.10;;;;;;;;;;5031441;28;20241;-15
2022/07/29 04:13:27;;;;;;;2.35;0.93;;;;;;;;;;5027213;28;21210;-15
2022/07/29 04:15:55;;;;;;;1.77;1.08;;;;;;;;;;5023446;28;21082;-15
2022/07/29 04:18:22;;;;;;;1.95;1.05;;;;;;;;;;5029844;28;20317;-15
2022/07/29 04:20:49;;;;;;;1.42;1.10;;;;;;;;;;5030718;28;20227;-15
2022/07/29 04:23:18;;;;;;;1.85;1.00;;;;;;;;;;5019628;28;20242;-15
2022/07/29 04:25:45;;;;;;;1.67;0.82;;;;;;;;;;5020673;28;20737;-15
2022/07/29 04:28:13;;;;;;;2.45;1.10;;;;;;;;;;5030227;28;20230;-15
2022/07/29 04:30:43;;;;;;;1.67;0.82;;;;;;;;;;5031037;28;20238;-15
2022/07/29 04:33:10;;;;;;;2.60;0.95;;;;;;;;;;5030819;28;20235;-15
2022/07/29 04:35:38;;;;;;;2.33;1.00;;;;;;;;;;5031209;28;20231;-15
2022/07/29 04:38:16;;;;;;;1.65;1.00;;;;;;;;;;5030481;28;20234;-15
2022/07/29 04:40:45;;;;;;;2.33;0.80;;;;;;;;;;5030431;28;20231;-15
2022/07/29 04:43:13;;;;;;;3.17;1.20;;;;;;;;;;5029569;28;20246;-15
2022/07/29 04:45:41;;;;;;;2.33;0.90;;;;;;;;;;5030669;28;20974;-15
2022/07/29 04:48:09;;;;;;;1.85;1.00;;;;;;;;;;5023166;28;20262;-15
2022/07/29 04:50:38;;;;;;;2.95;1.13;;;;;;;;;;5030822;28;20727;-15
2022/07/29 04:53:05;;;;;;;0.90;0.80;;;;;;;;;;5017307;28;20227;-15
2022/07/29 04:55:33;;;;;;;2.13;1.20;;;;;;;;;;5030878;28;20223;-15
2022/07/29 04:58:01;;;;;;;1.95;1.00;;;;;;;;;;5031022;28;20285;-15
2022/07/29 05:00:29;;;;;;;1.25;0.90;;;;;;;;;;5029906;28;20705;-15
2022/07/29 05:02:59;;;;;;;1.45;0.90;;;;;;;;;;5030527;28;20273;-15
2022/07/29 05:05:27;;;;;;;1.83;1.10;;;;;;;;;;5030142;28;20231;-15
2022/07/29 05:07:55;;;;;;;2.17;1.20;;;;;;;;;;5030511;28;20280;-15
2022/07/29 05:10:22;;;;;;;2.97;1.20;;;;;;;;;;5029760;28;20267;-15
2022/07/29 05:12:50;;;;;;;2.30;1.10;;;;;;;;;;5021510;28;20329;-15
2022/07/29 05:15:18;;;;;;;1.63;1.00;;;;;;;;;;5030161;28;20234;-15
2022/07/29 05:17:46;;;;;;;1.52;0.98;;;;;;;;;;5030994;28;20680;-15
2022/07/29 05:20:13;;;;;;;1.83;1.00;;;;;;;;;;5030354;28;20226;-15
2022/07/29 05:22:41;;;;;;;2.38;1.30;;;;;;;;;;5028916;28;20253;-15
2022/07/29 05:25:09;;;;;;;1.25;0.85;;;;;;;;;;5030390;28;20235;-15
2022/07/29 05:27:37;;;;;;;1.65;0.80;;;;;;;;;;5030318;28;20319;-15
2022/07/29 05:30:05;;;;;;;2.08;0.90;;;;;;;;;;5029966;28;20330;-15
2022/07/29 05:32:33;;;;;;;3.22;0.68;;;;;;;;;;5018793;28;20231;-15
2022/07/29 05:35:01;;;;;;;1.65;1.10;;;;;;;;;;5030376;28;20309;-15
2022/07/29 05:37:28;;;;;;;2.47;1.10;;;;;;;;;;5030298;28;20234;-15
2022/07/29 05:39:55;;;;;;;2.40;1.10;;;;;;;;;;5030656;28;20242;-15
2022/07/29 05:42:25;;;;;;;1.70;1.00;;;;;;;;;;5028358;28;21064;-15
2022/07/29 05:44:52;;;;;;;1.75;0.90;;;;;;;;;;5030818;28;20702;-15
2022/07/29 05:47:20;;;;;;;3.28;1.15;;;;;;;;;;5029679;28;20243;-15
2022/07/29 05:49:49;;;;;;;4.47;1.25;;;;;;;;;;5030163;28;20237;-15
2022/07/29 05:52:16;;;;;;;3.08;1.10;;;;;;;;;;5030098;28;20770;-15
2022/07/29 05:54:43;;;;;;;2.00;0.98;;;;;;;;;;5030970;28;20576;-15
2022/07/29 05:57:15;;;;;;;2.10;1.00;;;;;;;;;;5033286;28;20231;-15
2022/07/29 05:59:43;;;;;;;1.52;0.85;;;;;;;;;;5033705;28;20318;-15
2022/07/29 06:02:11;;;;;;;3.25;1.15;;;;;;;;;;5033563;28;20229;-15
2022/07/29 06:04:38;;;;;;;1.75;1.00;;;;;;;;;;5033593;28;20288;-15
2022/07/29 06:07:07;;;;;;;2.20;1.00;;;;;;;;;;5032437;28;20297;-15
2022/07/29 06:09:34;;;;;;;3.15;1.33;;;;;;;;;;5033369;28;20235;-15
2022/07/29 06:12:03;;;;;;;1.77;0.95;;;;;;;;;;5025780;28;20235;-15
2022/07/29 06:14:30;;;;;;;1.40;0.90;;;;;;;;;;5027763;28;20714;-15
2022/07/29 06:16:57;;;;;;;1.95;0.90;;;;;;;;;;5032443;28;20242;-15
2022/07/29 06:19:25;;;;;;;1.63;0.90;;;;;;;;;;5032599;28;21063;-15
2022/07/29 06:21:53;;;;;;;1.70;0.93;;;;;;;;;;5032474;28;20247;-15
2022/07/29 06:24:21;;;;;;;1.13;0.90;;;;;;;;;;5033022;28;20238;-15
2022/07/29 06:26:49;;;;;;;1.30;1.05;;;;;;;;;;5033095;28;20234;-15
2022/07/29 06:29:16;;;;;;;2.10;0.90;;;;;;;;;;5016101;28;20236;-15
2022/07/29 06:31:44;;;;;;;1.35;1.05;;;;;;;;;;5029156;28;20877;-15
2022/07/29 06:34:11;;;;;;;2.25;1.08;;;;;;;;;;5032943;28;21030;-15
2022/07/29 06:36:40;;;;;;;1.92;1.00;;;;;;;;;;5032868;28;20265;-15
2022/07/29 06:39:07;;;;;;;0.95;0.88;;;;;;;;;;5032273;28;20233;-15
2022/07/29 06:41:36;;;;;;;1.45;1.00;;;;;;;;;;5029698;28;20251;-15
2022/07/29 06:44:04;;;;;;;1.80;1.10;;;;;;;;;;5032262;28;20272;-15
2022/07/29 06:46:31;;;;;;;3.33;0.90;;;;;;;;;;5032991;28;20274;-15
2022/07/29 06:49:01;;;;;;;1.23;1.10;;;;;;;;;;5032259;28;20239;-15
2022/07/29 06:51:28;;;;;;;1.15;0.90;;;;;;;;;;5031937;28;20336;-15
2022/07/29 06:53:57;;;;;;;3.92;0.90;;;;;;;;;;5032465;28;20227;-15
2022/07/29 06:56:29;;;;;;;1.55;0.98;;;;;;;;;;5032491;28;20239;-15
2022/07/29 06:58:58;;;;;;;2.53;1.20;;;;;;;;;;5032335;28;20227;-15
2022/07/29 07:01:27;;;;;;;3.67;1.10;;;;;;;;;;5031092;28;20328;-15
2022/07/29 07:03:55;;;;;;;1.58;0.85;;;;;;;;;;5032338;28;20249;-15
2022/07/29 07:06:22;;;;;;;2.33;1.30;;;;;;;;;;5031131;28;20235;-16
2022/07/29 07:08:50;;;;;;;2.63;1.05;;;;;;;;;;5032310;28;20227;-15
2022/07/29 07:11:17;;;;;;;1.88;1.00;;;;;;;;;;5017943;28;20227;-15
2022/07/29 07:13:45;;;;;;;2.15;1.40;;;;;;;;;;5032298;28;20229;-15
2022/07/29 07:16:13;;;;;;;2.83;1.20;;;;;;;;;;5032306;28;20584;-15
2022/07/29 07:18:41;;;;;;;3.20;1.25;;;;;;;;;;5032111;28;20235;-15
2022/07/29 07:21:08;;;;;;;2.53;1.17;;;;;;;;;;5032327;28;20970;-15
2022/07/29 07:23:36;;;;;;;1.40;0.70;;;;;;;;;;5031184;28;20243;-15
2022/07/29 07:26:05;;;;;;;1.23;0.77;;;;;;;;;;5032264;28;20233;-15
2022/07/29 07:28:32;;;;;;;1.60;1.05;;;;;;;;;;5031725;28;20690;-15
2022/07/29 07:31:00;;;;;;;3.22;1.30;;;;;;;;;;5031733;28;20395;-15
2022/07/29 07:33:29;;;;;;;1.98;1.15;;;;;;;;;;5030650;28;20227;-15
2022/07/29 07:35:56;;;;;;;2.88;1.10;;;;;;;;;;5031935;28;21103;-15
2022/07/29 07:38:23;;;;;;;2.15;1.10;;;;;;;;;;5032108;28;20235;-15
2022/07/29 07:40:51;;;;;;;2.30;1.30;;;;;;;;;;5032059;28;20353;-15
2022/07/29 07:43:18;;;;;;;2.47;1.40;;;;;;;;;;5027929;28;20238;-15
2022/07/29 07:45:46;;;;;;;2.80;1.10;;;;;;;;;;5031196;28;20326;-15
2022/07/29 07:48:13;;;;;;;2.05;1.10;;;;;;;;;;5031836;28;20326;-15
2022/07/29 07:50:43;;;;;;;1.80;1.00;;;;;;;;;;5032425;28;20226;-15
2022/07/29 07:53:11;;;;;;;1.23;1.10;;;;;;;;;;5032181;28;20236;-15
2022/07/29 07:55:40;;;;;;;3.28;1.10;;;;;;;;;;5030979;28;20231;-15
2022/07/29 07:58:27;;;;;;;2.60;1.17;;;;;;;;;;5019881;28;20227;-15
2022/07/29 08:00:55;;;;;;;4.78;1.35;;;;;;;;;;5030805;28;20713;-15
2022/07/29 08:03:22;;;;;;;2.53;1.02;;;;;;;;;;5018712;28;20239;-15
2022/07/29 08:05:51;;;;;;;3.38;1.35;;;;;;;;;;5030554;28;20227;-15
2022/07/29 08:08:19;;;;;;;1.95;1.10;;;;;;;;;;5031444;28;20262;-15
2022/07/29 08:10:56;;;;;;;4.88;1.42;;;;;;;;;;5029995;28;20244;-15
2022/07/29 08:13:24;;;;;;;2.33;1.25;;;;;;;;;;5031295;28;20972;-15
2022/07/29 08:15:57;;;;;;;4.43;1.20;;;;;;;;;;5030850;28;20245;-15
2022/07/29 08:18:25;;;;;;;2.58;1.52;;;;;;;;;;5030298;28;20245;-15
2022/07/29 08:20:54;;;;;;;1.77;1.00;;;;;;;;;;5030573;28;20227;-16
2022/07/29 08:23:22;;;;;;;2.42;1.17;;;;;;;;;;5030519;28;20924;-16
2022/07/29 08:25:51;;;;;;;2.70;1.30;;;;;;;;;;5031141;28;20744;-15
2022/07/29 08:28:21;;;;;;;1.60;1.00;;;;;;;;;;5030174;28;20321;-15
2022/07/29 08:30:52;;;;;;;3.47;1.25;;;;;;;;;;5031019;28;20234;-15
2022/07/29 08:33:19;;;;;;;2.40;1.42;;;;;;;;;;5031103;28;20254;-15
2022/07/29 08:35:47;;;;;;;1.73;1.15;;;;;;;;;;5031215;28;20229;-15
2022/07/29 08:38:15;;;;;;;2.10;1.20;;;;;;;;;;5030637;28;20246;-16
2022/07/29 08:40:43;;;;;;;3.25;1.17;;;;;;;;;;5030065;28;20234;-15
2022/07/29 08:43:10;;;;;;;1.92;0.98;;;;;;;;;;5023671;28;20239;-16
2022/07/29 08:45:42;;;;;;;3.17;1.33;;;;;;;;;;5030438;28;20809;-15
2022/07/29 08:48:13;;;;;;;1.75;1.10;;;;;;;;;;5029997;28;20266;-15
2022/07/29 08:50:41;;;;;;;4.82;1.30;;;;;;;;;;5029933;28;20325;-16
2022/07/29 08:53:13;;;;;;;1.80;1.00;;;;;;;;;;5030811;28;20702;-16
2022/07/29 08:55:42;;;;;;;2.55;1.25;;;;;;;;;;5030899;28;20333;-16
2022/07/29 08:58:09;;;;;;;4.20;1.00;;;;;;;;;;5017018;28;20709;-15
2022/07/29 09:00:37;;;;;;;1.77;1.30;;;;;;;;;;5030057;28;21024;-15
2022/07/29 09:03:06;;;;;;;4.18;1.30;;;;;;;;;;5030353;28;20234;-15
2022/07/29 09:05:34;;;;;;;2.30;1.35;;;;;;;;;;5030455;28;20238;-15
2022/07/29 09:08:07;;;;;;;3.13;1.40;;;;;;;;;;5030770;28;20379;-15
2022/07/29 09:10:35;;;;;;;0.95;0.82;;;;;;;;;;5028379;28;20269;-15
2022/07/29 09:13:04;;;;;;;2.33;1.30;;;;;;;;;;5025833;28;20283;-15
2022/07/29 09:15:32;;;;;;;2.05;1.20;;;;;;;;;;5030377;28;20237;-15
2022/07/29 09:18:00;;;;;;;2.55;1.45;;;;;;;;;;5030689;28;20245;-15
2022/07/29 09:21:57;;;;;;;3.08;1.10;;;;;;;;;;5030886;28;20632;-15
2022/07/29 09:23:14;;;;;;;1.88;1.23;;;;;;;;;;5029538;28;20234;-15
2022/07/29 09:25:50;;;;;;;3.75;1.33;;;;;;;;;;5030520;28;20242;-15
2022/07/29 09:28:19;;;;;;;1.40;1.00;;;;;;;;;;5030789;28;20226;-15
2022/07/29 09:30:53;;;;;;;2.65;1.20;;;;;;;;;;5033801;28;20241;-15
2022/07/29 09:33:21;;;;;;;1.48;1.15;;;;;;;;;;5032823;28;20769;-15
2022/07/29 09:35:58;;;;;;;1.92;1.30;;;;;;;;;;5033832;28;20227;-15
2022/07/29 09:38:28;;;;;;;2.58;1.35;;;;;;;;;;5033219;28;20722;-15
2022/07/29 09:40:58;;;;;;;3.75;1.40;;;;;;;;;;5029464;28;20607;-15
2022/07/29 09:43:33;;;;;;;2.90;1.10;;;;;;;;;;5029151;28;20279;-15
2022/07/29 09:46:12;;;;;;;5.95;1.20;;;;;;;;;;5032489;28;20243;-15
2022/07/29 09:48:39;;;;;;;2.10;1.38;;;;;;;;;;5033716;28;20227;-15
2022/07/29 09:51:14;;;;;;;3.30;1.23;;;;;;;;;;5033469;28;20318;-15
2022/07/29 09:53:46;;;;;;;1.63;1.20;;;;;;;;;;5033589;28;20647;-15
2022/07/29 09:56:14;;;;;;;2.47;1.33;;;;;;;;;;5032640;28;20239;-15
2022/07/29 09:58:43;;;;;;;3.80;1.40;;;;;;;;;;5033360;28;20262;-15
2022/07/29 10:01:10;;;;;;;2.72;1.48;;;;;;;;;;5033160;28;20231;-15
2022/07/29 10:03:50;;;;;;;2.20;1.40;;;;;;;;;;5033235;28;20227;-15
2022/07/29 10:06:18;;;;;;;2.28;1.30;;;;;;;;;;5032139;28;20241;-15
2022/07/29 10:08:45;;;;;;;1.77;1.38;;;;;;;;;;5032951;28;20231;-15
2022/07/29 10:11:13;;;;;;;2.80;1.77;;;;;;;;;;5027716;28;20235;-15
2022/07/29 10:13:41;;;;;;;4.30;1.70;;;;;;;;;;5033153;28;20237;-15
2022/07/29 10:16:10;;;;;;;4.07;1.45;;;;;;;;;;5032978;28;20234;-15
2022/07/29 10:18:38;;;;;;;3.22;1.30;;;;;;;;;;5025249;28;20616;-15
2022/07/29 10:21:06;;;;;;;2.03;1.40;;;;;;;;;;5032135;28;20269;-15
2022/07/29 10:23:34;;;;;;;3.45;1.50;;;;;;;;;;5032727;28;20231;-15
2022/07/29 10:26:14;;;;;;;1.20;1.05;;;;;;;;;;5033174;28;20245;-15
2022/07/29 10:28:41;;;;;;;3.55;1.60;;;;;;;;;;5031840;28;20826;-15
2022/07/29 10:31:19;;;;;;;3.00;1.52;;;;;;;;;;5032633;28;20676;-15
2022/07/29 10:33:49;;;;;;;2.25;1.20;;;;;;;;;;5032985;28;20757;-15
2022/07/29 10:36:20;;;;;;;2.15;1.38;;;;;;;;;;5033040;28;20227;-15
2022/07/29 10:38:52;;;;;;;2.75;1.75;;;;;;;;;;5032551;28;20239;-15
2022/07/29 10:41:26;;;;;;;3.95;1.50;;;;;;;;;;5015539;28;20235;-15
2022/07/29 10:43:59;;;;;;;2.50;1.67;;;;;;;;;;5031926;28;20230;-15
2022/07/29 10:46:28;;;;;;;3.75;1.58;;;;;;;;;;5032284;28;20253;-15
2022/07/29 10:49:04;;;;;;;4.03;1.75;;;;;;;;;;5019136;28;20242;-15
2022/07/29 10:51:54;;;;;;;3.03;1.50;;;;;;;;;;5024244;28;20282;-15
2022/07/29 10:54:36;;;;;;;3.78;1.58;;;;;;;;;;5031954;28;20332;-15
2022/07/29 10:57:16;;;;;;;5.32;2.00;;;;;;;;;;5032639;28;20243;-15
2022/07/29 10:59:43;;;;;;;3.55;1.67;;;;;;;;;;5032387;28;20234;-15
2022/07/29 11:02:29;;;;;;;3.20;1.30;;;;;;;;;;5031335;28;20258;-15
2022/07/29 11:05:11;;;;;;;4.05;1.60;;;;;;;;;;5020055;28;20251;-15
2022/07/29 11:07:39;;;;;;;4.47;1.42;;;;;;;;;;5032470;28;20597;-15
2022/07/29 11:10:24;;;;;;;5.03;1.75;;;;;;;;;;5031963;28;20254;-15
2022/07/29 11:12:58;;;;;;;2.58;1.50;;;;;;;;;;5027626;28;20231;-15
2022/07/29 11:15:25;;;;;;;4.35;1.75;;;;;;;;;;5031690;28;20329;-15
2022/07/29 11:18:04;;;;;;;4.40;1.48;;;;;;;;;;5032127;28;20234;-15
2022/07/29 11:20:33;;;;;;;3.15;1.33;;;;;;;;;;5031520;28;20235;-15
2022/07/29 11:23:02;;;;;;;5.10;1.48;;;;;;;;;;5031644;28;20749;-15
2022/07/29 11:25:30;;;;;;;3.00;1.60;;;;;;;;;;5031743;28;20265;-15
2022/07/29 11:28:18;;;;;;;3.88;1.55;;;;;;;;;;5032134;28;20234;-15
2022/07/29 11:30:52;;;;;;;2.42;1.55;;;;;;;;;;5032054;28;20985;-15
2022/07/29 11:33:32;;;;;;;3.03;1.40;;;;;;;;;;5032049;28;20242;-15
2022/07/29 11:36:20;;;;;;;2.17;1.60;;;;;;;;;;5031426;28;20233;-15
2022/07/29 11:38:54;;;;;;;4.18;1.65;;;;;;;;;;5031956;28;20288;-15
2022/07/29 11:41:25;;;;;;;2.67;1.30;;;;;;;;;;5030916;28;20241;-15
2022/07/29 11:43:54;;;;;;;2.88;1.50;;;;;;;;;;5017905;28;20325;-15
2022/07/29 11:46:40;;;;;;;1.83;1.30;;;;;;;;;;5030460;28;20238;-15
2022/07/29 11:49:08;;;;;;;3.45;1.33;;;;;;;;;;5017926;28;20239;-15
2022/07/29 11:51:37;;;;;;;3.38;1.48;;;;;;;;;;5030963;28;20234;-15
2022/07/29 11:54:24;;;;;;;2.67;1.60;;;;;;;;;;5031516;28;20227;-15
2022/07/29 11:56:54;;;;;;;2.75;1.67;;;;;;;;;;5031309;28;20888;-15
2022/07/29 11:59:22;;;;;;;3.33;1.23;;;;;;;;;;5031394;28;20226;-15
2022/07/29 12:01:59;;;;;;;3.63;1.63;;;;;;;;;;5031371;28;21048;-15
2022/07/29 12:04:50;;;;;;;1.73;1.27;;;;;;;;;;5031832;28;20965;-15
2022/07/29 12:07:19;;;;;;;4.00;1.60;;;;;;;;;;5031049;28;20235;-15
2022/07/29 12:09:53;;;;;;;3.15;1.63;;;;;;;;;;5031297;28;20314;-15
2022/07/29 12:12:23;;;;;;;3.45;1.75;;;;;;;;;;5028497;28;20387;-15
2022/07/29 12:14:50;;;;;;;2.53;1.60;;;;;;;;;;5031509;28;20309;-15
2022/07/29 12:17:27;;;;;;;2.03;1.45;;;;;;;;;;5031238;28;20241;-15
2022/07/29 12:19:57;;;;;;;5.10;1.40;;;;;;;;;;5030639;28;20274;-15
2022/07/29 12:22:27;;;;;;;4.70;1.48;;;;;;;;;;5030471;28;20250;-15
2022/07/29 12:24:55;;;;;;;3.05;1.50;;;;;;;;;;5031218;28;20306;-15
2022/07/29 12:27:42;;;;;;;2.80;1.52;;;;;;;;;;5031017;28;20249;-15
2022/07/29 12:30:11;;;;;;;7.95;1.77;;;;;;;;;;5029970;28;20234;-15
2022/07/29 12:32:44;;;;;;;5.57;1.52;;;;;;;;;;5030903;28;20792;-15
2022/07/29 12:35:13;;;;;;;2.53;1.50;;;;;;;;;;5031087;28;20321;-15
2022/07/29 12:37:42;;;;;;;4.75;1.25;;;;;;;;;;5030400;28;20733;-15
2022/07/29 12:40:10;;;;;;;2.13;1.40;;;;;;;;;;5030384;28;20241;-15
2022/07/29 12:42:37;;;;;;;3.60;1.60;;;;;;;;;;5019464;28;20839;-15
2022/07/29 12:45:05;;;;;;;2.92;1.60;;;;;;;;;;5030787;28;20226;-15
2022/07/29 12:47:32;;;;;;;2.17;1.67;;;;;;;;;;5030713;28;20262;-15
2022/07/29 12:50:09;;;;;;;2.53;1.38;;;;;;;;;;5022236;28;20235;-15
2022/07/29 12:52:37;;;;;;;2.90;1.60;;;;;;;;;;5026565;28;20326;-14
2022/07/29 12:55:06;;;;;;;3.72;1.60;;;;;;;;;;5031150;28;20234;-14
2022/07/29 12:57:44;;;;;;;4.00;1.70;;;;;;;;;;5030720;28;20246;-14
2022/07/29 13:00:13;;;;;;;6.38;1.48;;;;;;;;;;5031136;28;20235;-14
2022/07/29 13:02:41;;;;;;;1.60;1.25;;;;;;;;;;5028816;28;20241;-15
2022/07/29 13:05:09;;;;;;;2.40;1.60;;;;;;;;;;5034908;28;20233;-14
2022/07/29 13:07:36;;;;;;;2.97;1.40;;;;;;;;;;5034166;28;20239;-14
2022/07/29 13:10:25;;;;;;;3.53;1.65;;;;;;;;;;5023109;28;20245;-14
2022/07/29 13:13:02;;;;;;;4.68;1.58;;;;;;;;;;5033957;28;20230;-15
2022/07/29 13:15:29;;;;;;;5.18;1.45;;;;;;;;;;5032137;28;20236;-15
2022/07/29 13:17:57;;;;;;;5.40;1.67;;;;;;;;;;5033991;28;20237;-15
2022/07/29 13:20:24;;;;;;;7.03;1.63;;;;;;;;;;5033750;28;20870;-14
2022/07/29 13:22:52;;;;;;;2.53;1.63;;;;;;;;;;5033217;28;20265;-14
2022/07/29 13:25:25;;;;;;;2.90;1.60;;;;;;;;;;5033176;28;20329;-14
2022/07/29 13:27:54;;;;;;;4.13;1.60;;;;;;;;;;5033543;28;20260;-15
2022/07/29 13:30:21;;;;;;;3.42;1.38;;;;;;;;;;5033469;28;20732;-14
2022/07/29 13:32:48;;;;;;;4.97;1.90;;;;;;;;;;5029337;28;20321;-14
2022/07/29 13:35:16;;;;;;;4.18;1.45;;;;;;;;;;5032881;28;20227;-14
2022/07/29 13:37:43;;;;;;;3.13;1.60;;;;;;;;;;5033964;28;20241;-14
2022/07/29 13:40:11;;;;;;;6.55;1.60;;;;;;;;;;5033649;28;20265;-15
2022/07/29 13:42:40;;;;;;;3.22;1.45;;;;;;;;;;5033553;28;20737;-15
2022/07/29 13:45:09;;;;;;;2.60;1.58;;;;;;;;;;5033660;28;20230;-15
2022/07/29 13:47:36;;;;;;;2.38;1.65;;;;;;;;;;5032919;28;20240;-14
2022/07/29 13:50:04;;;;;;;3.58;1.73;;;;;;;;;;5033933;28;20234;-15
2022/07/29 13:52:33;;;;;;;6.15;1.90;;;;;;;;;;5032916;28;20770;-15
2022/07/29 13:55:00;;;;;;;1.98;1.33;;;;;;;;;;5033741;28;20234;-15
2022/07/29 13:57:28;;;;;;;4.32;1.55;;;;;;;;;;5032335;28;20231;-15
2022/07/29 13:59:56;;;;;;;3.72;1.50;;;;;;;;;;5033368;28;20231;-14
2022/07/29 14:02:24;;;;;;;2.58;1.52;;;;;;;;;;5029621;28;20313;-14
2022/07/29 14:04:52;;;;;;;4.68;1.70;;;;;;;;;;5033287;28;20231;-15
2022/07/29 14:07:20;;;;;;;8.02;1.60;;;;;;;;;;5033217;28;20266;-15
2022/07/29 14:09:47;;;;;;;5.47;1.88;;;;;;;;;;5027755;28;20230;-15
2022/07/29 14:12:14;;;;;;;3.60;1.80;;;;;;;;;;5033095;28;20234;-14
2022/07/29 14:14:42;;;;;;;4.20;1.83;;;;;;;;;;5032393;28;20666;-14
2022/07/29 14:17:11;;;;;;;4.03;1.70;;;;;;;;;;5032552;28;20246;-14
2022/07/29 14:19:38;;;;;;;3.17;1.50;;;;;;;;;;5032308;28;20235;-14
2022/07/29 14:22:06;;;;;;;2.40;1.67;;;;;;;;;;5032721;28;20332;-15
2022/07/29 14:24:35;;;;;;;5.38;1.65;;;;;;;;;;5033523;28;21156;-15
2022/07/29 14:27:03;;;;;;;2.60;1.60;;;;;;;;;;5032569;28;20990;-15
2022/07/29 14:29:31;;;;;;;3.65;1.60;;;;;;;;;;5032795;28;20237;-15
2022/07/29 14:32:07;;;;;;;2.95;1.70;;;;;;;;;;5024290;28;20230;-15
2022/07/29 14:34:36;;;;;;;3.20;1.67;;;;;;;;;;5032860;28;20323;-15
2022/07/29 14:37:04;;;;;;;2.28;1.70;;;;;;;;;;5033053;28;20245;-15
2022/07/29 14:39:32;;;;;;;4.63;1.70;;;;;;;;;;5032912;28;20698;-15
2022/07/29 14:42:03;;;;;;;2.45;1.58;;;;;;;;;;5030849;28;20233;-15
2022/07/29 14:44:31;;;;;;;2.92;1.67;;;;;;;;;;5032666;28;20235;-15
2022/07/29 14:46:59;;;;;;;3.45;1.70;;;;;;;;;;5032638;28;20258;-15
2022/07/29 14:49:26;;;;;;;1.98;1.40;;;;;;;;;;5032397;28;20233;-14
2022/07/29 14:51:55;;;;;;;3.22;1.67;;;;;;;;;;5032655;28;20235;-14
2022/07/29 14:54:23;;;;;;;2.60;1.92;;;;;;;;;;5031745;28;20235;-15
2022/07/29 14:56:51;;;;;;;2.72;1.80;;;;;;;;;;5032686;28;20685;-15
2022/07/29 14:59:18;;;;;;;5.57;2.03;;;;;;;;;;5032455;28;20241;-15